Time;durP1;ratioP1;P1;durP2;ratioP2;P2;SDS_P1;SDS_P2;PMS_P1;PMS_P2;Temp;Humidity;BMP_temperature;BMP_pressure;BME280_temperature;BME280_humidity;BME280_pressure;Samples;Min_cycle;Max_cycle;Signal;HPM_P1;HPM_P2
2023/10/16 00:00:30;;;;;;;6.77;2.50;;;;;;;7.02;100.00;101876.84;6155853;28;20231;-73
2023/10/16 00:03:51;;;;;;;3.20;1.43;;;;;;;7.03;100.00;101865.16;6152436;28;20234;-74
2023/10/16 00:07:14;;;;;;;3.33;1.13;;;;;;;6.94;100.00;101872.88;6150901;28;20231;-73
2023/10/16 00:10:35;;;;;;;2.20;1.37;;;;;;;7.05;100.00;101873.97;6148619;28;20227;-74
2023/10/16 00:13:57;;;;;;;1.50;1.00;;;;;;;7.07;100.00;101885.47;6152058;28;20234;-74
2023/10/16 00:17:21;;;;;;;8.33;1.77;;;;;;;6.94;100.00;101879.13;6153761;28;20230;-72
2023/10/16 00:20:42;;;;;;;2.57;1.00;;;;;;;7.00;100.00;101892.16;6150400;28;20226;-73
2023/10/16 00:24:07;;;;;;;1.27;1.13;;;;;;;6.96;100.00;101892.44;6153444;28;20254;-72
2023/10/16 00:27:28;;;;;;;1.87;1.30;;;;;;;6.84;100.00;101893.97;6149770;28;20231;-73
2023/10/16 00:30:51;;;;;;;2.60;1.27;;;;;;;7.00;100.00;101894.84;6152784;28;20230;-73
2023/10/16 00:34:19;;;;;;;4.60;1.93;;;;;;;7.48;100.00;101890.22;6140520;28;20234;-73
2023/10/16 00:37:41;;;;;;;1.27;1.17;;;;;;;7.15;100.00;101898.47;6152875;28;20234;-73
2023/10/16 00:41:15;;;;;;;1.67;1.03;;;;;;;7.18;100.00;101880.34;6147540;28;20242;-74
2023/10/16 00:44:38;;;;;;;3.23;0.97;;;;;;;7.16;100.00;101874.22;6155656;28;20222;-73
2023/10/16 00:48:01;;;;;;;1.63;1.40;;;;;;;7.17;100.00;101867.94;6150213;28;20235;-73
2023/10/16 00:51:22;;;;;;;1.53;0.80;;;;;;;7.18;100.00;101863.41;6157416;28;20683;-73
2023/10/16 00:54:43;;;;;;;3.17;0.70;;;;;;;7.25;100.00;101862.09;6155479;28;20230;-74
2023/10/16 00:58:06;;;;;;;3.30;1.93;;;;;;;7.31;100.00;101869.78;6154398;28;20345;-73
2023/10/16 01:01:31;;;;;;;4.67;2.50;;;;;;;7.23;100.00;101854.16;6151548;28;20900;-73
2023/10/16 01:04:53;;;;;;;2.30;2.10;;;;;;;7.30;100.00;101862.69;6152949;28;20226;-74
2023/10/16 01:08:17;;;;;;;2.20;1.30;;;;;;;7.34;100.00;101856.19;6153651;28;20235;-74
2023/10/16 01:11:38;;;;;;;2.40;1.17;;;;;;;7.33;100.00;101857.13;6163699;28;20799;-74
2023/10/16 01:14:59;;;;;;;3.20;1.07;;;;;;;7.14;100.00;101848.44;6152224;28;20234;-74
2023/10/16 01:18:21;;;;;;;1.03;0.93;;;;;;;7.13;100.00;101854.78;6157020;28;20238;-73
2023/10/16 01:21:43;;;;;;;2.50;0.93;;;;;;;7.25;100.00;101852.25;6157116;28;20230;-74
2023/10/16 01:25:08;;;;;;;1.30;0.73;;;;;;;7.04;100.00;101864.22;6169483;28;20219;-73
2023/10/16 01:28:30;;;;;;;2.73;1.40;;;;;;;6.99;100.00;101863.63;6151306;28;20279;-72
2023/10/16 01:31:52;;;;;;;3.17;1.70;;;;;;;7.03;100.00;101861.66;6154791;28;20699;-73
2023/10/16 01:35:13;;;;;;;4.50;1.00;;;;;;;7.08;100.00;101872.94;6151053;28;20419;-74
2023/10/16 01:38:36;;;;;;;5.27;1.77;;;;;;;7.14;100.00;101864.53;6166947;28;20231;-73
2023/10/16 01:42:01;;;;;;;9.17;1.60;;;;;;;7.21;100.00;101864.09;6157934;28;20230;-73
2023/10/16 01:45:23;;;;;;;3.80;1.40;;;;;;;7.22;100.00;101879.22;6154237;28;20234;-73
2023/10/16 01:48:46;;;;;;;2.70;1.90;;;;;;;7.30;100.00;101877.91;6156533;28;20231;-73
2023/10/16 01:52:10;;;;;;;1.20;0.70;;;;;;;7.34;100.00;101892.88;6153578;28;20519;-73
2023/10/16 01:55:31;;;;;;;3.43;1.17;;;;;;;7.35;100.00;101891.91;6155313;28;20230;-74
2023/10/16 01:58:54;;;;;;;1.50;0.93;;;;;;;7.33;100.00;101888.44;6156698;28;20619;-73
2023/10/16 02:02:17;;;;;;;2.23;1.30;;;;;;;7.46;100.00;101892.13;6153232;28;20227;-73
2023/10/16 02:05:41;;;;;;;3.03;1.10;;;;;;;7.23;100.00;101893.50;6153712;28;20246;-73
2023/10/16 02:09:04;;;;;;;1.27;1.17;;;;;;;7.26;100.00;101874.53;6157787;28;20258;-72
2023/10/16 02:12:25;;;;;;;4.17;1.40;;;;;;;7.12;100.00;101877.16;6152655;28;20542;-73
2023/10/16 02:15:47;;;;;;;2.77;1.17;;;;;;;7.20;100.00;101874.91;6155598;28;20317;-74
2023/10/16 02:19:11;;;;;;;5.27;1.80;;;;;;;7.18;100.00;101883.03;6154399;28;20555;-73
2023/10/16 02:22:32;;;;;;;1.33;0.83;;;;;;;7.20;100.00;101890.97;6154916;28;20262;-71
2023/10/16 02:25:53;;;;;;;3.07;1.63;;;;;;;7.24;100.00;101896.09;6154047;28;20680;-74
2023/10/16 02:29:15;;;;;;;1.50;1.37;;;;;;;7.06;100.00;101891.81;6155564;28;20234;-73
2023/10/16 02:32:38;;;;;;;2.33;1.03;;;;;;;6.99;100.00;101890.41;6156889;28;20234;-73
2023/10/16 02:35:59;;;;;;;2.17;1.17;;;;;;;7.08;100.00;101903.31;6153893;28;20231;-73
2023/10/16 02:43:00;;;;;;;1.30;0.90;;;;;;;7.14;100.00;101905.63;6155144;28;20238;-73
2023/10/16 02:46:22;;;;;;;3.90;2.00;;;;;;;7.12;100.00;101899.50;6168413;28;20238;-72
2023/10/16 02:49:48;;;;;;;1.80;1.13;;;;;;;7.30;100.00;101904.75;6156425;28;20234;-73
2023/10/16 02:53:11;;;;;;;4.50;2.37;;;;;;;7.29;100.00;101906.56;6169130;28;20242;-72
2023/10/16 02:56:32;;;;;;;2.43;1.57;;;;;;;7.22;100.00;101902.50;6154134;28;20231;-72
2023/10/16 02:59:53;;;;;;;2.80;1.90;;;;;;;7.23;100.00;101902.41;6155043;28;20318;-72
2023/10/16 03:03:14;;;;;;;7.87;1.30;;;;;;;7.05;100.00;101892.75;6157487;28;20234;-72
2023/10/16 03:06:40;;;;;;;4.57;1.70;;;;;;;7.16;100.00;101890.31;6156733;28;20313;-73
2023/10/16 03:10:03;;;;;;;2.97;1.80;;;;;;;7.19;100.00;101897.31;6159053;28;20230;-73
2023/10/16 03:13:25;;;;;;;2.83;1.50;;;;;;;7.21;100.00;101890.91;6155665;28;20230;-72
2023/10/16 03:16:48;;;;;;;3.47;1.67;;;;;;;7.29;100.00;101893.13;6153860;28;20227;-72
2023/10/16 03:20:18;;;;;;;1.53;1.40;;;;;;;7.30;100.00;101891.31;6156723;28;20238;-73
2023/10/16 03:23:44;;;;;;;2.23;2.03;;;;;;;7.21;100.00;101903.47;6153146;28;20322;-73
2023/10/16 03:27:08;;;;;;;1.47;1.27;;;;;;;7.31;100.00;101917.19;6142546;28;20226;-73
2023/10/16 03:30:30;;;;;;;2.27;2.07;;;;;;;7.35;100.00;101911.56;6158470;28;20258;-73
2023/10/16 03:33:53;;;;;;;1.27;1.17;;;;;;;7.33;100.00;101913.47;6160273;28;20241;-73
2023/10/16 03:37:15;;;;;;;3.77;1.63;;;;;;;7.16;100.00;101910.88;6153623;28;20250;-73
2023/10/16 03:40:37;;;;;;;2.70;1.83;;;;;;;7.20;100.00;101901.72;6152856;28;20361;-73
2023/10/16 03:44:06;;;;;;;1.97;1.33;;;;;;;7.19;100.00;101908.91;6156186;28;20253;-73
2023/10/16 03:47:27;;;;;;;2.33;1.80;;;;;;;7.13;100.00;101906.56;6157371;28;20229;-72
2023/10/16 03:50:48;;;;;;;1.60;1.47;;;;;;;7.16;100.00;101905.53;6161212;28;20817;-72
2023/10/16 03:54:12;;;;;;;2.53;2.33;;;;;;;7.06;100.00;101898.97;6157965;28;20615;-73
2023/10/16 03:57:35;;;;;;;3.03;2.73;;;;;;;7.19;100.00;101895.50;6156893;28;20230;-73
2023/10/16 04:00:57;;;;;;;2.93;1.83;;;;;;;7.19;100.00;101900.00;6155738;28;20234;-73
2023/10/16 04:04:18;;;;;;;1.40;1.23;;;;;;;7.20;100.00;101899.91;6156192;28;20234;-74
2023/10/16 04:07:41;;;;;;;2.47;1.53;;;;;;;7.31;100.00;101888.53;6157197;28;20325;-74
2023/10/16 04:11:03;;;;;;;1.97;1.87;;;;;;;7.31;100.00;101893.91;6157323;28;21372;-73
2023/10/16 04:14:44;;;;;;;3.70;2.40;;;;;;;7.37;100.00;101887.31;6151544;28;20226;-74
2023/10/16 04:18:09;;;;;;;3.27;1.80;;;;;;;7.42;100.00;101894.16;6153006;28;20254;-73
2023/10/16 04:21:40;;;;;;;3.77;1.57;;;;;;;7.38;100.00;101879.19;6155031;28;20238;-73
2023/10/16 04:25:02;;;;;;;1.87;1.50;;;;;;;7.46;100.00;101886.78;6154828;28;20233;-73
2023/10/16 04:28:29;;;;;;;1.70;1.60;;;;;;;7.45;100.00;101882.38;6153483;28;20667;-73
2023/10/16 04:31:57;;;;;;;2.87;2.10;;;;;;;7.43;100.00;101879.75;6149752;28;20321;-73
2023/10/16 04:35:51;;;;;;;4.23;2.03;;;;;;;7.50;100.00;101878.47;6155296;28;20234;-73
2023/10/16 04:40:27;;;;;;;3.83;1.80;;;;;;;7.47;100.00;101889.34;6156747;28;20687;-72
2023/10/16 04:43:17;;;;;;;3.10;1.60;;;;;;;7.61;100.00;101892.09;6150264;28;20322;-72
2023/10/16 04:50:15;;;;;;;2.07;1.60;;;;;;;7.54;100.00;101895.22;6147023;28;20230;-73
2023/10/16 04:53:48;;;;;;;3.30;2.30;;;;;;;7.59;100.00;101899.38;6157888;28;20235;-72
2023/10/16 04:57:37;;;;;;;2.73;2.23;;;;;;;7.59;100.00;101894.00;6160141;28;20315;-74
2023/10/16 05:01:22;;;;;;;3.57;2.03;;;;;;;7.59;100.00;101894.00;6149247;28;21010;-73
2023/10/16 05:04:59;;;;;;;3.07;1.83;;;;;;;7.65;100.00;101903.50;6161376;28;20227;-73
2023/10/16 05:08:35;;;;;;;4.30;1.60;;;;;;;7.74;100.00;101900.28;6157736;28;20238;-72
2023/10/16 05:16:30;;;;;;;7.93;2.67;;;;;;;7.71;100.00;101893.25;6155829;28;20230;-71
2023/10/16 05:19:44;;;;;;;1.80;1.47;;;;;;;8.36;100.00;101888.34;6154058;28;20230;-72
2023/10/16 06:14:12;;;;;;;3.47;3.07;;;;;;;7.96;100.00;101916.78;6167222;28;20415;-71
2023/10/16 06:17:37;;;;;;;3.07;2.77;;;;;;;7.94;100.00;101913.34;6162298;28;20233;-70
2023/10/16 06:21:01;;;;;;;5.27;2.57;;;;;;;7.99;100.00;101914.75;6161004;28;20688;-71
2023/10/16 06:24:28;;;;;;;5.50;3.67;;;;;;;8.23;100.00;101911.53;6166521;28;20234;-70
2023/10/16 06:27:48;;;;;;;2.97;2.73;;;;;;;7.96;100.00;101919.47;6153444;28;20238;-69
2023/10/16 06:31:13;;;;;;;3.23;2.47;;;;;;;8.20;100.00;101917.09;6150427;28;20313;-69
2023/10/16 06:34:34;;;;;;;3.23;2.60;;;;;;;8.16;100.00;101920.91;6158814;28;20244;-70
2023/10/16 06:37:56;;;;;;;2.77;2.37;;;;;;;8.22;100.00;101926.78;6162295;28;20227;-69
2023/10/16 06:41:18;;;;;;;4.13;2.87;;;;;;;8.25;100.00;101923.03;6163433;28;20239;-71
2023/10/16 06:44:42;;;;;;;4.87;3.43;;;;;;;8.03;100.00;101936.94;6159825;28;20238;-74
2023/10/16 06:48:08;;;;;;;3.63;3.00;;;;;;;8.28;100.00;101945.22;6158727;28;20230;-72
2023/10/16 06:51:30;;;;;;;2.90;2.50;;;;;;;8.21;100.00;101945.66;6164654;28;20243;-72
2023/10/16 06:54:52;;;;;;;4.57;3.97;;;;;;;8.20;100.00;101947.50;6155496;28;20525;-72
2023/10/16 06:58:13;;;;;;;3.17;2.77;;;;;;;8.36;100.00;101944.75;6160151;28;20750;-69
2023/10/16 07:01:34;;;;;;;4.03;3.27;;;;;;;8.42;100.00;101939.88;6158180;28;20234;-69
2023/10/16 07:04:55;;;;;;;4.10;3.03;;;;;;;8.47;100.00;101951.19;6167950;28;20226;-70
2023/10/16 07:08:18;;;;;;;3.70;3.40;;;;;;;8.69;100.00;101945.31;6151351;28;20231;-70
2023/10/16 07:11:42;;;;;;;3.70;3.40;;;;;;;8.59;100.00;101942.38;6165887;28;20497;-68
2023/10/16 07:15:05;;;;;;;2.90;2.50;;;;;;;8.57;100.00;101940.72;6156089;28;20766;-72
2023/10/16 07:18:26;;;;;;;6.13;3.00;;;;;;;8.65;100.00;101941.97;6163126;28;20232;-70
2023/10/16 07:21:49;;;;;;;7.50;4.17;;;;;;;8.73;100.00;101946.84;6153706;28;20333;-72
2023/10/16 07:25:23;;;;;;;4.37;2.73;;;;;;;8.71;100.00;101948.78;6161564;28;20672;-70
2023/10/16 07:28:48;;;;;;;3.63;3.33;;;;;;;8.83;100.00;101950.66;6158428;28;20233;-69
2023/10/16 07:32:09;;;;;;;2.70;2.27;;;;;;;8.85;100.00;101948.75;6164525;28;20699;-69
2023/10/16 07:35:30;;;;;;;3.23;2.60;;;;;;;8.86;100.00;101947.78;6160362;28;20234;-70
2023/10/16 07:38:52;;;;;;;2.80;2.50;;;;;;;8.53;100.00;101961.53;6146981;28;20239;-72
2023/10/16 07:42:15;;;;;;;4.53;2.50;;;;;;;8.60;100.00;101951.25;6160561;28;20317;-71
2023/10/16 07:45:37;;;;;;;3.53;3.20;;;;;;;8.71;100.00;101956.84;6155483;28;20234;-69
2023/10/16 07:49:09;;;;;;;3.33;2.83;;;;;;;8.73;100.00;101960.28;6160952;28;20229;-71
2023/10/16 07:52:30;;;;;;;2.40;2.07;;;;;;;9.11;100.00;101969.44;6158098;28;20229;-71
2023/10/16 07:55:51;;;;;;;2.20;2.00;;;;;;;9.37;100.00;101968.56;6157202;28;20318;-69
2023/10/16 07:59:18;;;;;;;2.93;2.73;;;;;;;9.36;100.00;101969.56;6153722;28;20242;-68
2023/10/16 08:02:44;;;;;;;2.33;2.23;;;;;;;9.30;100.00;101971.78;6163378;28;20230;-69
2023/10/16 08:06:06;;;;;;;3.50;2.80;;;;;;;9.41;100.00;101969.22;6159607;28;20230;-69
2023/10/16 08:13:11;;;;;;;2.50;2.13;;;;;;;9.50;100.00;101982.97;6161695;28;20234;-68
2023/10/16 08:16:31;;;;;;;3.97;1.90;;;;;;;9.68;100.00;101989.78;6153206;28;20636;-70
2023/10/16 08:19:54;;;;;;;4.17;3.17;;;;;;;9.30;100.00;101988.81;6156944;28;20231;-69
2023/10/16 08:23:15;;;;;;;3.03;2.73;;;;;;;9.35;100.00;101985.78;6162663;28;20269;-71
2023/10/16 08:26:42;;;;;;;3.47;2.70;;;;;;;9.33;100.00;101988.59;6155073;28;20234;-69
2023/10/16 08:30:17;;;;;;;3.37;3.13;;;;;;;9.59;100.00;101987.75;6160894;28;20609;-71
2023/10/16 08:33:38;;;;;;;2.73;2.43;;;;;;;9.75;100.00;102000.16;6158463;28;20234;-68
2023/10/16 08:37:00;;;;;;;2.63;2.43;;;;;;;9.70;100.00;101996.91;6160316;28;20230;-70
2023/10/16 08:40:32;;;;;;;2.87;2.27;;;;;;;10.01;100.00;101997.41;6158046;28;20234;-69
2023/10/16 08:43:54;;;;;;;2.30;2.10;;;;;;;10.22;100.00;102003.22;6155017;28;20234;-68
2023/10/16 08:47:20;;;;;;;2.93;2.13;;;;;;;10.35;100.00;102004.06;6166268;28;20237;-68
2023/10/16 08:50:52;;;;;;;2.47;2.30;;;;;;;10.25;100.00;101998.44;6164594;28;20659;-68
2023/10/16 08:57:54;;;;;;;2.43;2.20;;;;;;;10.01;100.00;101999.25;6165466;28;20234;-68
2023/10/16 09:01:16;;;;;;;1.97;1.87;;;;;;;10.58;100.00;102003.31;6164464;28;20667;-69
2023/10/16 09:04:40;;;;;;;2.37;2.10;;;;;;;11.29;100.00;101995.41;6164700;28;20407;-69
2023/10/16 09:08:01;;;;;;;1.77;1.67;;;;;;;11.73;100.00;101997.50;6155170;28;20227;-69
2023/10/16 09:11:26;;;;;;;6.57;2.53;;;;;;;11.38;100.00;101999.25;6157501;28;20243;-69
2023/10/16 09:14:48;;;;;;;2.20;2.00;;;;;;;11.27;100.00;102006.31;6161073;28;20222;-69
2023/10/16 09:18:09;;;;;;;3.43;1.97;;;;;;;12.01;100.00;102006.09;6163239;28;20321;-68
2023/10/16 09:21:30;;;;;;;2.50;2.30;;;;;;;12.27;100.00;102004.06;6164566;28;20242;-69
2023/10/16 09:24:52;;;;;;;1.30;1.20;;;;;;;11.95;100.00;102013.81;6162297;28;20541;-69
2023/10/16 09:28:18;;;;;;;1.40;1.30;;;;;;;12.23;100.00;102013.41;6166368;28;20298;-69
2023/10/16 09:31:43;;;;;;;2.03;1.00;;;;;;;12.07;100.00;102001.19;6165410;28;20250;-69
2023/10/16 09:35:06;;;;;;;1.97;1.77;;;;;;;12.43;100.00;102007.28;6164389;28;20648;-69
2023/10/16 09:38:32;;;;;;;3.20;1.30;;;;;;;14.49;100.00;102004.53;6164646;28;20231;-69
2023/10/16 09:41:59;;;;;;;1.60;1.30;;;;;;;12.91;100.00;102010.69;6161267;28;20242;-69
2023/10/16 09:45:21;;;;;;;1.50;1.40;;;;;;;13.24;100.00;102017.94;6159386;28;20917;-69
2023/10/16 09:48:43;;;;;;;2.10;1.30;;;;;;;12.63;100.00;102017.44;6162892;28;20234;-69
2023/10/16 09:52:05;;;;;;;4.70;2.17;;;;;;;12.72;100.00;102018.53;6160328;28;20258;-69
2023/10/16 09:55:27;;;;;;;2.47;1.63;;;;;;;12.24;100.00;102022.38;6159760;28;20239;-69
2023/10/16 09:58:51;;;;;;;2.80;2.07;;;;;;;12.01;100.00;102029.56;6159353;28;20256;-69
2023/10/16 10:02:17;;;;;;;1.93;1.23;;;;;;;11.53;100.00;102026.00;6164811;28;20238;-69
2023/10/16 10:05:43;;;;;;;2.27;1.40;;;;;;;11.79;100.00;102035.72;6163092;28;20234;-69
2023/10/16 10:12:56;;;;;;;3.73;1.00;;;;;;;11.80;100.00;102029.38;6154860;28;20600;-69
2023/10/16 10:16:20;;;;;;;5.00;1.10;;;;;;;11.93;100.00;102026.59;6166099;28;20239;-69
2023/10/16 10:19:46;;;;;;;3.90;2.03;;;;;;;11.79;100.00;102030.31;6160119;28;20226;-69
2023/10/16 10:23:08;;;;;;;1.87;1.77;;;;;;;11.55;100.00;102028.56;6153435;28;20329;-68
2023/10/16 10:26:32;;;;;;;4.87;2.10;;;;;;;11.34;100.00;102032.84;6164649;28;20243;-69
2023/10/16 10:30:01;;;;;;;3.90;1.00;;;;;;;11.44;100.00;102034.75;6151161;28;20720;-69
2023/10/16 10:33:42;;;;;;;3.57;1.30;;;;;;;11.76;100.00;102035.09;6150990;28;20322;-68
2023/10/16 10:37:45;;;;;;;2.90;1.60;;;;;;;11.81;100.00;102032.91;6154095;28;20226;-69
2023/10/16 10:41:16;;;;;;;5.93;2.83;;;;;;;11.58;100.00;102033.72;6150097;28;20234;-69
2023/10/16 10:44:39;;;;;;;3.37;2.47;;;;;;;11.34;100.00;102038.25;6157230;28;20596;-69
2023/10/16 10:48:06;;;;;;;3.77;3.10;;;;;;;11.28;100.00;102032.31;6152859;28;20691;-68
2023/10/16 10:51:32;;;;;;;7.90;1.80;;;;;;;11.05;100.00;102035.84;6161820;28;20574;-72
2023/10/16 10:54:59;;;;;;;2.87;1.40;;;;;;;11.13;100.00;102025.38;6148006;28;20790;-71
2023/10/16 10:58:23;;;;;;;2.10;1.90;;;;;;;11.54;100.00;102018.72;6149825;28;20315;-69
2023/10/16 11:01:54;;;;;;;9.90;7.20;;;;;;;11.95;100.00;102025.47;6148628;28;20237;-70
2023/10/16 11:05:25;;;;;;;2.67;2.07;;;;;;;12.07;100.00;102029.09;6143622;28;20226;-73
2023/10/16 11:08:48;;;;;;;2.00;1.00;;;;;;;11.89;100.00;102030.50;6157305;28;20254;-70
2023/10/16 11:12:11;;;;;;;7.33;1.77;;;;;;;11.93;100.00;102023.88;6148089;28;20556;-73
2023/10/16 11:15:31;;;;;;;5.97;4.30;;;;;;;12.03;100.00;102020.38;6151960;28;20233;-69
2023/10/16 11:19:00;;;;;;;4.13;1.47;;;;;;;12.76;100.00;102014.59;6153979;28;20231;-70
2023/10/16 11:22:27;;;;;;;1.23;0.93;;;;;;;13.04;100.00;102011.44;6147962;28;20976;-68
2023/10/16 11:25:51;;;;;;;1.37;0.90;;;;;;;13.08;100.00;102020.19;6156472;28;20747;-70
2023/10/16 11:29:13;;;;;;;3.83;1.50;;;;;;;12.87;100.00;102014.59;6157282;28;20229;-69
2023/10/16 11:32:34;;;;;;;1.57;0.90;;;;;;;12.55;100.00;102017.19;6153287;28;20298;-70
2023/10/16 11:36:02;;;;;;;1.00;1.00;;;;;;;12.31;100.00;102018.22;6155895;28;20241;-68
2023/10/16 11:39:23;;;;;;;3.93;1.30;;;;;;;12.27;100.00;102011.31;6155099;28;22320;-70
2023/10/16 11:42:45;;;;;;;2.90;1.73;;;;;;;12.35;100.00;102015.16;6153460;28;20242;-72
2023/10/16 11:46:27;;;;;;;2.80;1.57;;;;;;;12.35;100.00;102011.63;6158666;28;20234;-73
2023/10/16 11:49:53;;;;;;;1.23;1.13;;;;;;;12.69;100.00;102005.25;6154668;28;20552;-70
2023/10/16 11:53:15;;;;;;;4.50;1.67;;;;;;;15.66;92.67;101997.53;6147357;28;20231;-70
2023/10/16 11:56:36;;;;;;;1.90;1.20;;;;;;;13.77;93.18;102005.38;6148356;28;20235;-70
2023/10/16 11:59:58;;;;;;;1.60;0.97;;;;;;;14.82;89.94;102003.41;6159342;28;20235;-69
2023/10/16 12:03:20;;;;;;;1.27;1.17;;;;;;;14.80;87.66;102008.09;6153971;28;20308;-70
2023/10/16 12:06:44;;;;;;;1.70;1.23;;;;;;;13.25;94.63;102011.53;6156199;28;20235;-69
2023/10/16 12:10:05;;;;;;;1.30;1.10;;;;;;;12.73;100.00;102009.44;6156286;28;20579;-70
2023/10/16 12:13:27;;;;;;;4.20;1.57;;;;;;;12.05;100.00;102020.25;6153280;28;20250;-71
2023/10/16 12:16:48;;;;;;;3.83;1.50;;;;;;;11.83;100.00;102020.13;6157148;28;20230;-72
2023/10/16 12:20:12;;;;;;;1.23;0.97;;;;;;;12.42;100.00;102016.41;6155391;28;20258;-70
2023/10/16 12:23:33;;;;;;;2.30;1.53;;;;;;;15.71;96.05;102012.41;6165239;28;20258;-71
2023/10/16 12:26:54;;;;;;;2.57;1.30;;;;;;;17.89;78.45;102011.03;6151316;28;20239;-75
2023/10/16 12:30:15;;;;;;;2.63;1.40;;;;;;;18.62;73.04;102009.78;6156512;28;20233;-73
2023/10/16 12:33:37;;;;;;;1.40;1.03;;;;;;;17.44;74.02;102012.88;6152921;28;20521;-76
2023/10/16 12:37:00;;;;;;;3.97;1.43;;;;;;;16.06;76.58;102008.28;6158827;28;21040;-72
2023/10/16 12:40:34;;;;;;;1.47;1.00;;;;;;;14.80;83.13;102013.53;6157511;28;20317;-72
2023/10/16 12:43:56;;;;;;;2.00;0.80;;;;;;;13.60;86.35;102015.75;6151261;28;20234;-69
2023/10/16 12:47:17;;;;;;;1.73;1.03;;;;;;;13.44;88.17;102014.44;6152307;28;20235;-68
2023/10/16 12:50:39;;;;;;;2.07;0.90;;;;;;;13.64;88.23;102011.78;6149627;28;20239;-69
2023/10/16 12:54:03;;;;;;;1.67;0.90;;;;;;;14.40;84.55;102010.72;6156362;28;20226;-69
2023/10/16 12:57:24;;;;;;;1.83;0.80;;;;;;;14.58;84.42;102005.56;6150126;28;20609;-70
2023/10/16 13:00:50;;;;;;;1.70;0.93;;;;;;;13.97;86.53;102018.09;6154843;28;20218;-69
2023/10/16 13:04:15;;;;;;;2.87;1.40;;;;;;;14.09;88.25;102008.91;6143696;28;20235;-68
2023/10/16 13:07:36;;;;;;;2.90;1.30;;;;;;;13.94;91.13;102019.22;6153252;28;20235;-68
2023/10/16 13:10:58;;;;;;;1.73;1.00;;;;;;;13.32;94.83;102021.75;6150417;28;20234;-68
2023/10/16 13:14:19;;;;;;;4.20;1.50;;;;;;;14.20;94.21;102020.56;6148887;28;20684;-70
2023/10/16 13:17:40;;;;;;;7.53;1.87;;;;;;;13.58;95.06;102020.44;6170675;28;20224;-68
2023/10/16 13:21:06;;;;;;;2.43;1.43;;;;;;;14.05;93.85;102012.88;6150781;28;20526;-68
2023/10/16 13:24:27;;;;;;;1.90;0.97;;;;;;;14.38;90.91;102016.31;6176735;28;20242;-68
2023/10/16 13:27:51;;;;;;;1.50;0.73;;;;;;;13.83;90.00;102023.81;6150666;28;21060;-68
2023/10/16 13:31:11;;;;;;;1.23;1.00;;;;;;;13.14;90.61;102014.25;6142305;28;20637;-70
2023/10/16 13:34:32;;;;;;;1.57;0.73;;;;;;;13.82;91.63;102017.53;6159825;28;20493;-69
2023/10/16 13:37:53;;;;;;;1.33;0.90;;;;;;;13.76;90.02;102017.19;6150155;28;20238;-71
2023/10/16 13:41:18;;;;;;;2.50;0.90;;;;;;;13.86;90.14;102013.56;6160404;28;20231;-71
2023/10/16 13:44:40;;;;;;;2.63;1.20;;;;;;;14.48;86.85;102007.38;6164840;28;20647;-70
2023/10/16 13:48:04;;;;;;;5.60;1.60;;;;;;;14.34;84.75;102012.13;6156917;28;20238;-68
2023/10/16 13:51:25;;;;;;;2.30;1.53;;;;;;;14.41;85.81;102016.03;6160745;28;20246;-68
2023/10/16 13:54:50;;;;;;;1.67;1.07;;;;;;;14.33;85.67;102009.56;6153105;28;20740;-69
2023/10/16 13:58:11;;;;;;;3.30;1.23;;;;;;;13.99;88.40;102013.41;6156206;28;20295;-70
2023/10/16 14:01:38;;;;;;;4.73;1.43;;;;;;;14.48;87.14;102013.63;6164251;28;20227;-70
2023/10/16 14:04:59;;;;;;;1.43;1.20;;;;;;;13.79;87.25;102008.81;6157523;28;20341;-69
2023/10/16 14:08:26;;;;;;;2.97;1.60;;;;;;;13.62;89.78;102010.22;6158926;28;20237;-69
2023/10/16 14:11:49;;;;;;;3.40;1.40;;;;;;;13.01;92.85;102013.50;6161933;28;20242;-68
2023/10/16 14:15:19;;;;;;;0.80;0.80;;;;;;;13.00;95.49;102007.22;6153883;28;20231;-70
2023/10/16 14:18:43;;;;;;;1.33;0.73;;;;;;;14.52;87.00;102000.69;6159203;28;21159;-69
2023/10/16 14:22:06;;;;;;;3.33;1.40;;;;;;;15.44;77.84;101995.03;6156052;28;20257;-70
2023/10/16 14:25:32;;;;;;;3.13;1.40;;;;;;;15.17;75.81;101988.38;6157719;28;20251;-70
2023/10/16 14:28:54;;;;;;;1.47;0.70;;;;;;;16.16;70.48;101998.25;6158693;28;20334;-69
2023/10/16 14:32:15;;;;;;;1.90;0.93;;;;;;;16.35;67.60;101995.50;6163142;28;20225;-69
2023/10/16 14:35:39;;;;;;;0.97;0.83;;;;;;;16.77;71.60;101986.81;6156008;28;20234;-69
2023/10/16 14:39:04;;;;;;;1.00;0.80;;;;;;;16.56;77.34;101986.16;6152162;28;20258;-76
2023/10/16 14:42:25;;;;;;;0.77;0.77;;;;;;;16.86;71.53;101989.63;6155210;28;21091;-76
2023/10/16 14:45:47;;;;;;;0.77;0.60;;;;;;;16.31;72.05;101992.19;6160447;28;20226;-76
2023/10/16 14:49:09;;;;;;;3.93;0.73;;;;;;;15.95;74.89;101990.25;6153756;28;20238;-74
2023/10/16 14:52:31;;;;;;;3.13;1.57;;;;;;;16.06;78.79;101995.56;6160178;28;20239;-75
2023/10/16 14:55:52;;;;;;;1.33;0.83;;;;;;;15.47;74.08;101998.38;6154171;28;20235;-75
2023/10/16 14:59:22;;;;;;;1.93;1.03;;;;;;;14.71;79.64;102017.06;6151700;28;20609;-74
2023/10/16 15:02:44;;;;;;;2.10;1.43;;;;;;;14.45;81.40;102015.78;6156669;28;20665;-74
2023/10/16 15:06:05;;;;;;;2.27;1.40;;;;;;;13.57;86.47;102007.91;6154966;28;20234;-74
2023/10/16 15:09:28;;;;;;;1.03;0.80;;;;;;;13.48;87.69;102015.91;6150997;28;20324;-72
2023/10/16 15:12:49;;;;;;;2.13;0.90;;;;;;;13.09;90.94;102017.34;6159517;28;20325;-72
2023/10/16 15:16:10;;;;;;;2.37;1.17;;;;;;;12.83;92.54;102021.22;6157675;28;20246;-72
2023/10/16 15:19:34;;;;;;;1.67;0.90;;;;;;;12.78;95.55;102018.94;6162687;28;20538;-72
2023/10/16 15:22:55;;;;;;;6.43;1.93;;;;;;;12.61;99.10;102019.41;6151904;28;20232;-73
2023/10/16 15:26:17;;;;;;;3.03;2.23;;;;;;;12.61;98.82;102018.53;6149953;28;20226;-75
2023/10/16 15:29:38;;;;;;;5.67;2.10;;;;;;;12.42;95.39;102020.94;6135174;28;20258;-69
2023/10/16 15:33:00;;;;;;;3.80;1.00;;;;;;;12.22;95.72;102022.50;6156894;28;20353;-69
2023/10/16 15:36:21;;;;;;;1.17;1.07;;;;;;;12.10;97.79;102020.72;6147697;28;20262;-69
2023/10/16 15:39:42;;;;;;;2.87;1.53;;;;;;;12.03;97.15;102020.38;6148338;28;20233;-69
2023/10/16 15:43:04;;;;;;;2.87;1.50;;;;;;;11.95;99.04;102030.03;6157588;28;20621;-70
2023/10/16 15:46:27;;;;;;;2.83;1.07;;;;;;;11.59;100.00;102019.25;6162180;28;20265;-70
2023/10/16 15:49:48;;;;;;;1.83;1.50;;;;;;;11.57;100.00;102026.63;6163919;28;20314;-70
2023/10/16 15:53:09;;;;;;;4.90;1.60;;;;;;;11.51;100.00;102021.69;6154273;28;20223;-70
2023/10/16 15:56:31;;;;;;;2.17;1.13;;;;;;;11.47;100.00;102022.88;6162003;28;20597;-70
2023/10/16 15:59:53;;;;;;;2.27;1.47;;;;;;;11.42;100.00;102028.63;6156377;28;20224;-70
2023/10/16 16:03:14;;;;;;;4.73;1.20;;;;;;;11.38;100.00;102024.41;6152822;28;20234;-70
2023/10/16 16:06:35;;;;;;;1.70;1.00;;;;;;;11.33;100.00;102029.28;6158739;28;20250;-71
2023/10/16 16:09:57;;;;;;;3.07;1.50;;;;;;;11.27;100.00;102025.22;6444195;22;20225;-69
2023/10/16 16:13:18;;;;;;;1.73;1.13;;;;;;;11.30;100.00;102039.44;6172388;28;20231;-70
2023/10/16 16:16:41;;;;;;;1.93;0.90;;;;;;;11.32;100.00;102032.09;6175738;28;20222;-70
2023/10/16 16:20:01;;;;;;;2.30;0.93;;;;;;;11.33;100.00;102031.97;6167314;28;20233;-70
2023/10/16 16:23:25;;;;;;;17.33;13.93;;;;;;;11.25;100.00;102037.97;6177817;28;20242;-70
2023/10/16 16:26:46;;;;;;;24.90;21.87;;;;;;;11.22;100.00;102038.16;6181470;28;20381;-71
2023/10/16 16:30:08;;;;;;;19.17;16.83;;;;;;;11.04;100.00;102044.03;6164286;28;20233;-70
2023/10/16 16:33:30;;;;;;;9.93;7.33;;;;;;;10.93;100.00;102054.75;6166958;28;20230;-70
2023/10/16 16:36:52;;;;;;;24.57;18.83;;;;;;;10.83;100.00;102057.22;6170591;28;20264;-70
2023/10/16 16:40:13;;;;;;;24.67;21.90;;;;;;;10.83;100.00;102057.22;6175081;28;20233;-70
2023/10/16 16:43:34;;;;;;;10.77;9.73;;;;;;;10.71;100.00;102057.22;6174290;28;20619;-70
2023/10/16 16:46:58;;;;;;;16.57;14.83;;;;;;;10.69;100.00;102064.56;6167489;28;22471;-70
2023/10/16 16:50:21;;;;;;;8.60;7.77;;;;;;;10.69;100.00;102060.03;6170400;28;20257;-70
2023/10/16 16:53:41;;;;;;;4.40;3.30;;;;;;;10.67;100.00;102070.09;6179221;28;20655;-70
2023/10/16 16:57:03;;;;;;;16.97;13.57;;;;;;;10.72;100.00;102070.59;6177006;28;20252;-70